Time;durP1;ratioP1;P1;durP2;ratioP2;P2;SDS_P1;SDS_P2;PMS_P1;PMS_P2;Temp;Humidity;BMP_temperature;BMP_pressure;BME280_temperature;BME280_humidity;BME280_pressure;Samples;Min_cycle;Max_cycle;Signal;HPM_P1;HPM_P2
2022/04/13 00:01:07;;;;;;;9.68;5.18;;;;;;;12.83;75.15;100965.13;5343740;27;20060;-62
2022/04/13 00:03:38;;;;;;;13.73;4.45;;;;;;;12.86;71.73;100955.97;5351923;27;20041;-62
2022/04/13 00:06:10;;;;;;;10.75;4.20;;;;;;;12.81;71.84;100950.16;5345490;27;20022;-62
2022/04/13 00:08:43;;;;;;;11.70;4.40;;;;;;;12.72;72.40;100946.44;5347508;27;20030;-61
2022/04/13 00:11:14;;;;;;;10.50;4.75;;;;;;;12.70;73.67;100951.91;5348665;27;20464;-61
2022/04/13 00:13:46;;;;;;;8.88;4.32;;;;;;;12.66;72.64;100961.19;5348345;27;20042;-62
2022/04/13 00:16:17;;;;;;;9.38;4.10;;;;;;;12.66;73.04;100954.97;5347602;27;20050;-62
2022/04/13 00:18:48;;;;;;;12.20;3.85;;;;;;;12.64;72.70;100959.63;5343052;27;20323;-62
2022/04/13 00:21:20;;;;;;;9.00;4.50;;;;;;;12.59;74.69;100957.31;5348442;27;20039;-61
2022/04/13 00:23:51;;;;;;;11.00;4.15;;;;;;;12.61;74.40;100968.72;5347955;27;20522;-62
2022/04/13 00:26:23;;;;;;;8.35;3.80;;;;;;;12.61;74.15;100963.38;5348714;27;20038;-62
2022/04/13 00:28:54;;;;;;;9.00;3.72;;;;;;;12.54;73.86;100968.41;5350483;27;20014;-62
2022/04/13 00:31:26;;;;;;;11.13;3.78;;;;;;;12.54;74.50;100973.75;5344745;27;20030;-62
2022/04/13 00:33:57;;;;;;;8.77;3.90;;;;;;;12.54;74.64;100973.75;5344348;27;20019;-62
2022/04/13 00:36:28;;;;;;;12.45;4.03;;;;;;;12.49;74.82;100975.13;5349281;27;20314;-61
2022/04/13 00:38:59;;;;;;;11.45;3.70;;;;;;;12.43;74.45;100972.94;5346450;27;20050;-62
2022/04/13 00:41:31;;;;;;;11.95;3.70;;;;;;;12.43;74.80;100981.81;5348999;27;20660;-62
2022/04/13 00:44:10;;;;;;;8.85;4.00;;;;;;;12.45;74.99;100981.69;5351502;27;20054;-62
2022/04/13 00:46:41;;;;;;;8.10;3.20;;;;;;;12.42;75.70;100988.13;5347595;27;20470;-61
2022/04/13 00:49:14;;;;;;;7.90;3.33;;;;;;;12.39;75.59;100987.53;5347102;27;20533;-62
2022/04/13 00:51:46;;;;;;;10.30;3.50;;;;;;;12.34;75.96;100990.59;5351837;27;20069;-62
2022/04/13 00:54:23;;;;;;;7.90;3.72;;;;;;;12.36;76.18;100994.84;5352540;27;20105;-62
2022/04/13 00:56:55;;;;;;;9.48;3.40;;;;;;;12.40;76.75;100994.59;5352476;27;20030;-62
2022/04/13 00:59:29;;;;;;;11.25;3.80;;;;;;;12.31;76.45;100999.72;5352009;27;20018;-62
2022/04/13 01:02:01;;;;;;;11.20;3.90;;;;;;;12.27;77.73;101002.78;5352341;27;20030;-62
2022/04/13 01:04:34;;;;;;;12.18;3.60;;;;;;;12.28;77.36;101005.31;5352346;27;20523;-62
2022/04/13 01:07:08;;;;;;;10.10;3.70;;;;;;;12.22;77.63;101011.19;5359860;27;20026;-61
2022/04/13 01:09:40;;;;;;;10.55;3.60;;;;;;;12.22;77.83;101008.50;5353423;27;20244;-62
2022/04/13 01:12:11;;;;;;;10.18;4.18;;;;;;;12.24;77.90;101011.91;5356843;27;20141;-61
2022/04/13 01:14:43;;;;;;;8.45;4.13;;;;;;;12.19;78.35;101014.09;5353248;27;20090;-62
2022/04/13 01:17:14;;;;;;;12.23;4.30;;;;;;;12.24;78.39;101029.78;5351706;27;20054;-62
2022/04/13 01:19:46;;;;;;;10.93;4.28;;;;;;;12.27;78.91;101029.53;5335577;27;20472;-62
2022/04/13 01:22:19;;;;;;;11.18;5.28;;;;;;;12.30;79.36;101027.44;5355429;27;20421;-61
2022/04/13 01:24:50;;;;;;;10.93;5.63;;;;;;;12.30;79.43;101035.47;5351919;27;20035;-62
2022/04/13 01:27:21;;;;;;;13.15;6.50;;;;;;;12.25;78.98;101031.47;5348100;27;20067;-62
2022/04/13 01:29:54;;;;;;;14.63;6.03;;;;;;;12.26;80.14;101044.72;5352312;27;20381;-62
2022/04/13 01:32:26;;;;;;;13.10;5.80;;;;;;;12.27;80.50;101037.53;5352965;27;20117;-62
2022/04/13 01:34:57;;;;;;;15.45;5.95;;;;;;;12.29;80.54;101048.97;5353240;27;20532;-61
2022/04/13 01:37:28;;;;;;;10.85;5.93;;;;;;;12.29;81.22;101043.63;5347972;27;20038;-62
2022/04/13 01:40:00;;;;;;;14.57;6.53;;;;;;;12.34;81.98;101052.13;5352619;27;20050;-62
2022/04/13 01:42:32;;;;;;;13.75;6.15;;;;;;;12.30;82.71;101056.88;5351579;27;20087;-61
2022/04/13 01:45:06;;;;;;;11.35;6.03;;;;;;;12.31;82.63;101057.72;5355939;27;20038;-61
2022/04/13 01:47:37;;;;;;;12.82;7.15;;;;;;;12.32;83.15;101064.78;5351043;27;20099;-62
2022/04/13 01:50:09;;;;;;;14.10;6.88;;;;;;;12.29;83.24;101065.91;5355253;27;20129;-61
2022/04/13 01:52:41;;;;;;;14.68;6.90;;;;;;;12.28;84.05;101077.56;5349615;27;20463;-62
2022/04/13 01:55:13;;;;;;;14.23;6.43;;;;;;;12.31;83.80;101069.31;5350471;27;20533;-62
2022/04/13 01:57:44;;;;;;;15.10;7.00;;;;;;;12.29;84.55;101065.91;5349108;27;20090;-61
2022/04/13 02:00:16;;;;;;;14.90;7.65;;;;;;;12.29;84.38;101065.91;5348265;27;20519;-62
2022/04/13 02:02:47;;;;;;;14.80;6.45;;;;;;;12.30;83.75;101072.09;5352353;27;20035;-62
2022/04/13 02:05:19;;;;;;;15.95;7.47;;;;;;;12.25;83.93;101064.41;5346272;27;20023;-62
2022/04/13 02:07:51;;;;;;;14.73;6.72;;;;;;;12.19;84.78;101080.97;5356701;27;20391;-62
2022/04/13 02:10:22;;;;;;;14.93;6.90;;;;;;;12.13;85.05;101076.94;5358243;27;20030;-61
2022/04/13 02:12:54;;;;;;;14.02;6.93;;;;;;;12.11;85.48;101086.91;5356967;27;20029;-62
2022/04/13 02:15:25;;;;;;;10.38;6.25;;;;;;;12.13;84.94;101084.97;5356227;27;20147;-62
2022/04/13 02:17:56;;;;;;;12.98;6.97;;;;;;;12.09;84.92;101075.50;5353916;27;20420;-62
2022/04/13 02:20:28;;;;;;;12.75;6.90;;;;;;;12.09;84.87;101082.69;5358334;27;20022;-61
2022/04/13 02:23:01;;;;;;;11.65;7.03;;;;;;;12.09;85.49;101088.03;5358177;27;20332;-62
2022/04/13 02:25:35;;;;;;;15.30;7.40;;;;;;;12.04;85.41;101085.72;5353071;27;20502;-61
2022/04/13 02:28:07;;;;;;;19.13;7.75;;;;;;;12.16;85.44;101090.09;5361179;27;20460;-61
2022/04/13 02:30:38;;;;;;;13.02;7.03;;;;;;;12.02;85.41;101084.13;5354354;27;20071;-62
2022/04/13 02:33:10;;;;;;;11.88;7.07;;;;;;;11.98;86.31;101093.38;5358009;27;20597;-61
2022/04/13 02:35:41;;;;;;;14.13;6.55;;;;;;;11.98;86.60;101094.22;5355558;27;20095;-61
2022/04/13 02:38:12;;;;;;;15.90;6.93;;;;;;;11.92;86.84;101092.03;5352627;27;20034;-61
2022/04/13 02:40:43;;;;;;;14.52;6.40;;;;;;;11.90;87.29;101094.81;5355834;27;20026;-61
2022/04/13 02:43:15;;;;;;;12.20;6.72;;;;;;;11.85;87.69;101104.13;5354952;27;20037;-62
2022/04/13 02:45:47;;;;;;;13.13;6.75;;;;;;;11.81;87.54;101095.50;5351993;27;20058;-62
2022/04/13 02:48:18;;;;;;;11.55;6.60;;;;;;;11.72;88.12;101102.41;5354327;27;20030;-61
2022/04/13 02:50:49;;;;;;;15.40;6.50;;;;;;;11.75;88.28;101109.34;5348370;27;20039;-62
2022/04/13 02:53:22;;;;;;;13.38;6.85;;;;;;;11.68;88.60;101108.97;5357806;27;20034;-62
2022/04/13 02:55:53;;;;;;;13.48;7.13;;;;;;;11.64;87.87;101111.97;5350377;27;20140;-62
2022/04/13 02:58:24;;;;;;;11.55;6.60;;;;;;;11.57;87.81;101115.13;5350343;27;20507;-62
2022/04/13 03:00:56;;;;;;;15.18;8.20;;;;;;;11.55;88.55;101103.72;5348523;27;20053;-61
2022/04/13 03:03:27;;;;;;;12.48;7.05;;;;;;;11.51;89.22;101110.25;5351813;27;20500;-62
2022/04/13 03:05:58;;;;;;;12.88;6.80;;;;;;;11.42;89.97;101110.13;5353383;27;20019;-62
2022/04/13 03:08:30;;;;;;;11.50;6.72;;;;;;;11.36;89.52;101108.75;5352104;27;20034;-61
2022/04/13 03:11:01;;;;;;;14.98;7.97;;;;;;;11.28;88.97;101108.50;5348979;27;20026;-62
2022/04/13 03:13:32;;;;;;;11.93;6.72;;;;;;;11.21;90.42;101118.75;5347855;27;20073;-62
2022/04/13 03:16:04;;;;;;;13.85;6.85;;;;;;;11.14;89.90;101107.72;5353389;27;20058;-62
2022/04/13 03:18:35;;;;;;;16.45;7.53;;;;;;;11.03;90.75;101110.31;5347047;27;20035;-61
2022/04/13 03:21:06;;;;;;;11.20;7.22;;;;;;;10.98;91.13;101105.31;5349811;27;20031;-61
2022/04/13 03:23:38;;;;;;;17.23;8.38;;;;;;;11.03;91.65;101107.66;5350468;27;20065;-61
2022/04/13 03:26:09;;;;;;;8.38;6.25;;;;;;;10.96;91.21;101114.41;5349280;27;21332;-61
2022/04/13 03:28:40;;;;;;;12.70;6.88;;;;;;;10.89;90.98;101113.16;5347532;27;20578;-62
2022/04/13 03:31:11;;;;;;;15.07;7.65;;;;;;;10.82;92.87;101106.56;5347624;27;20031;-62
2022/04/13 03:33:43;;;;;;;10.00;6.88;;;;;;;10.78;92.75;101112.13;5348443;27;20030;-62
2022/04/13 03:36:16;;;;;;;11.82;6.13;;;;;;;10.69;92.86;101103.94;5350749;27;20027;-62
2022/04/13 03:38:47;;;;;;;14.10;7.35;;;;;;;10.62;93.28;101106.19;5349488;27;20121;-62
2022/04/13 03:41:18;;;;;;;12.48;7.20;;;;;;;10.61;92.39;101119.66;5350885;27;20050;-62
2022/04/13 03:43:50;;;;;;;13.10;7.35;;;;;;;10.57;92.38;101122.53;5349329;27;20042;-62
2022/04/13 03:46:21;;;;;;;12.50;7.80;;;;;;;10.50;92.74;101123.09;5350553;27;20039;-62
2022/04/13 03:48:52;;;;;;;11.07;6.97;;;;;;;10.45;93.58;101122.56;5350729;27;20031;-63
2022/04/13 03:51:24;;;;;;;14.93;6.95;;;;;;;10.44;93.73;101124.38;5349720;27;20459;-62
2022/04/13 03:53:55;;;;;;;12.25;6.88;;;;;;;10.35;93.98;101125.03;5344525;27;20094;-62
2022/04/13 03:56:27;;;;;;;12.35;7.70;;;;;;;10.31;94.04;101127.06;5343517;27;20035;-62
2022/04/13 03:59:02;;;;;;;15.15;7.85;;;;;;;10.30;93.53;101124.50;5343118;27;20030;-62
2022/04/13 04:01:33;;;;;;;13.85;7.35;;;;;;;10.21;94.66;101132.16;5342370;27;20031;-62
2022/04/13 04:04:05;;;;;;;13.98;7.60;;;;;;;10.13;95.59;101134.53;5339443;27;20467;-62
2022/04/13 04:06:36;;;;;;;15.07;8.35;;;;;;;10.13;95.70;101136.34;5347221;27;20393;-62
2022/04/13 04:09:07;;;;;;;15.77;8.43;;;;;;;10.15;95.27;101142.41;5350412;27;20396;-62
2022/04/13 04:11:38;;;;;;;12.75;7.75;;;;;;;10.14;95.86;101148.69;5328505;27;20095;-62
2022/04/13 04:14:09;;;;;;;13.82;9.10;;;;;;;10.10;95.67;101147.22;5347216;27;20428;-62
2022/04/13 04:16:41;;;;;;;17.13;8.93;;;;;;;10.09;95.31;101156.19;5348554;27;20468;-62
2022/04/13 04:19:12;;;;;;;17.83;9.48;;;;;;;10.10;95.40;101155.22;5324021;27;20125;-62
2022/04/13 04:21:43;;;;;;;11.85;7.90;;;;;;;10.06;96.46;101159.06;5340804;27;20122;-62
2022/04/13 04:24:15;;;;;;;14.77;9.25;;;;;;;10.06;96.79;101161.72;5340435;27;20030;-62
2022/04/13 04:26:46;;;;;;;12.27;8.98;;;;;;;10.06;96.44;101157.22;5340896;27;21199;-62
2022/04/13 04:29:17;;;;;;;15.38;9.30;;;;;;;10.08;97.19;101159.78;5343820;27;20035;-62
2022/04/13 04:31:51;;;;;;;15.18;9.00;;;;;;;10.10;96.91;101165.88;5345606;27;20428;-62
2022/04/13 04:34:23;;;;;;;14.45;9.80;;;;;;;10.13;97.93;101161.19;5351244;27;20037;-62
2022/04/13 04:36:55;;;;;;;17.50;10.02;;;;;;;10.13;97.39;101165.66;5342534;27;20388;-62
2022/04/13 04:39:26;;;;;;;17.75;10.57;;;;;;;10.19;97.62;101171.41;5340972;27;20062;-62
2022/04/13 04:41:57;;;;;;;14.73;9.90;;;;;;;10.21;98.20;101184.66;5343313;27;20465;-62
2022/04/13 04:44:28;;;;;;;18.70;10.52;;;;;;;10.27;97.98;101188.72;5340994;27;20030;-62
2022/04/13 04:47:00;;;;;;;18.95;11.30;;;;;;;10.30;98.46;101181.38;5320345;27;20050;-62
2022/04/13 04:49:31;;;;;;;14.88;10.43;;;;;;;10.33;97.93;101185.63;5339778;27;20516;-62
2022/04/13 04:52:03;;;;;;;17.75;10.75;;;;;;;10.32;97.40;101187.47;5339029;27;20742;-62
2022/04/13 04:54:34;;;;;;;18.23;10.85;;;;;;;10.38;98.15;101202.19;5346281;27;20400;-62
2022/04/13 04:57:05;;;;;;;18.83;10.68;;;;;;;10.41;97.70;101209.94;5338031;27;20239;-62
2022/04/13 04:59:36;;;;;;;19.38;11.45;;;;;;;10.42;97.61;101213.50;5346451;27;20118;-62
2022/04/13 05:02:08;;;;;;;19.23;11.45;;;;;;;10.38;97.63;101205.69;5346190;27;20376;-62
2022/04/13 05:04:39;;;;;;;19.20;12.70;;;;;;;10.36;97.71;101204.94;5351703;27;20029;-62
2022/04/13 05:07:10;;;;;;;20.60;12.50;;;;;;;10.33;97.60;101204.31;5344731;27;20023;-62
2022/04/13 05:09:42;;;;;;;20.55;13.05;;;;;;;10.35;98.10;101216.56;5353013;27;20062;-62
2022/04/13 05:12:13;;;;;;;20.65;13.40;;;;;;;10.37;98.16;101214.66;5341360;27;20396;-62
2022/04/13 05:14:45;;;;;;;21.55;13.95;;;;;;;10.50;99.48;101216.47;5356364;27;20476;-62
2022/04/13 05:17:16;;;;;;;20.45;14.80;;;;;;;10.55;99.65;101217.84;5344978;27;20036;-62
2022/04/13 05:19:47;;;;;;;22.77;14.20;;;;;;;10.63;99.07;101224.47;5349165;27;20137;-62
2022/04/13 05:22:19;;;;;;;18.15;14.45;;;;;;;10.67;99.20;101226.81;5353226;27;20026;-62
2022/04/13 05:24:51;;;;;;;21.55;15.05;;;;;;;10.71;99.06;101224.78;5348343;27;20076;-62
2022/04/13 05:27:22;;;;;;;25.63;16.52;;;;;;;10.88;98.86;101232.44;5343999;27;20053;-62
2022/04/13 05:29:53;;;;;;;21.90;16.13;;;;;;;10.87;99.20;101230.72;5354526;27;20066;-62
2022/04/13 05:32:25;;;;;;;27.98;17.33;;;;;;;10.96;99.22;101242.56;5350685;27;20042;-62
2022/04/13 05:35:01;;;;;;;24.55;18.38;;;;;;;11.06;99.71;101240.91;5352559;27;20057;-62
2022/04/13 05:37:32;;;;;;;25.08;17.70;;;;;;;11.09;98.96;101246.06;5349030;27;20118;-62
2022/04/13 05:40:04;;;;;;;24.08;16.52;;;;;;;11.16;98.51;101251.78;5359486;27;20053;-62
2022/04/13 05:42:35;;;;;;;25.67;18.45;;;;;;;11.23;99.38;101253.06;5346574;27;20109;-62
2022/04/13 05:45:07;;;;;;;24.67;18.10;;;;;;;11.33;98.59;101258.56;5350615;27;20671;-62
2022/04/13 05:47:39;;;;;;;27.90;17.95;;;;;;;11.38;98.50;101256.44;5357173;27;20087;-62
2022/04/13 05:50:11;;;;;;;27.55;18.67;;;;;;;11.41;98.09;101263.34;5356308;27;20076;-62
2022/04/13 05:52:43;;;;;;;28.75;18.23;;;;;;;11.50;97.57;101258.19;5353518;27;20034;-62
2022/04/13 05:55:15;;;;;;;28.65;18.58;;;;;;;11.61;97.88;101256.56;5355616;27;20030;-62
2022/04/13 05:57:46;;;;;;;27.17;19.30;;;;;;;11.68;97.22;101263.16;5346916;27;20106;-62
2022/04/13 06:00:17;;;;;;;28.23;20.38;;;;;;;11.81;97.58;101265.75;5354491;27;20719;-62
2022/04/13 06:02:49;;;;;;;26.45;19.33;;;;;;;11.88;97.48;101267.00;5356685;27;20031;-62
2022/04/13 06:05:21;;;;;;;28.08;19.23;;;;;;;12.02;96.97;101264.16;5351008;27;20455;-62
2022/04/13 06:07:53;;;;;;;26.70;18.80;;;;;;;12.09;96.18;101277.94;5351741;27;20030;-62
2022/04/13 06:10:24;;;;;;;28.17;20.17;;;;;;;12.14;95.74;101281.97;5353440;27;20054;-62
2022/04/13 06:12:56;;;;;;;27.55;19.83;;;;;;;12.16;96.16;101285.38;5343845;27;20030;-62
2022/04/13 06:15:28;;;;;;;24.45;19.27;;;;;;;12.20;95.82;101287.81;5350384;27;20051;-62
2022/04/13 06:18:00;;;;;;;25.85;19.27;;;;;;;12.25;95.49;101283.78;5342232;27;20153;-62
2022/04/13 06:20:31;;;;;;;30.05;19.05;;;;;;;12.28;95.88;101294.28;5345287;27;20480;-62
2022/04/13 06:23:02;;;;;;;25.95;18.98;;;;;;;12.37;95.61;101298.09;5345417;27;20031;-62
2022/04/13 06:25:34;;;;;;;24.05;18.85;;;;;;;12.38;95.09;101305.13;5345350;27;20782;-62
2022/04/13 06:28:05;;;;;;;25.50;18.50;;;;;;;12.45;94.70;101302.84;5351057;27;20031;-62
2022/04/13 06:30:36;;;;;;;27.55;18.85;;;;;;;12.47;94.01;101295.53;5350128;27;20670;-62
2022/04/13 06:33:08;;;;;;;26.73;18.55;;;;;;;12.48;93.80;101299.91;5347116;27;20495;-63
2022/04/13 06:35:39;;;;;;;26.52;18.65;;;;;;;12.43;94.15;101294.09;5350491;27;20031;-62
2022/04/13 06:38:10;;;;;;;29.60;19.45;;;;;;;12.45;94.32;101294.81;5342441;27;20468;-62
2022/04/13 06:40:41;;;;;;;29.50;19.77;;;;;;;12.45;94.89;101308.19;5341085;27;20033;-62
2022/04/13 06:43:13;;;;;;;24.75;19.20;;;;;;;12.46;94.69;101301.84;5346906;27;20084;-62
2022/04/13 06:45:44;;;;;;;25.55;18.88;;;;;;;12.46;94.41;101307.22;5347007;27;20027;-62
2022/04/13 06:48:15;;;;;;;24.08;18.92;;;;;;;12.47;94.58;101322.31;5343352;27;20334;-62
2022/04/13 06:50:46;;;;;;;27.23;18.88;;;;;;;12.52;94.59;101322.78;5342848;27;20075;-62
2022/04/13 06:53:18;;;;;;;24.85;19.58;;;;;;;12.58;94.72;101324.13;5346465;27;20357;-62
2022/04/13 06:55:50;;;;;;;30.73;19.67;;;;;;;12.59;94.90;101329.38;5347484;27;20035;-62
2022/04/13 06:58:21;;;;;;;29.48;19.23;;;;;;;12.70;95.09;101350.81;5345694;27;20031;-62
2022/04/13 07:00:52;;;;;;;27.17;20.15;;;;;;;12.81;94.90;101343.78;5346747;27;20023;-62
2022/04/13 07:03:24;;;;;;;27.33;19.33;;;;;;;12.91;94.22;101350.13;5344757;27;20579;-62
2022/04/13 07:05:55;;;;;;;28.15;19.70;;;;;;;13.02;94.27;101349.28;5350038;27;20022;-62
2022/04/13 07:08:26;;;;;;;26.83;19.70;;;;;;;13.14;93.46;101346.47;5347546;27;20035;-62
2022/04/13 07:10:58;;;;;;;26.88;19.90;;;;;;;13.22;92.79;101363.78;5345687;27;20117;-62
2022/04/13 07:13:31;;;;;;;28.27;19.40;;;;;;;13.28;92.27;101363.28;5342452;27;20038;-62
2022/04/13 07:16:03;;;;;;;27.42;19.60;;;;;;;13.26;92.02;101368.75;5348552;27;20026;-62
2022/04/13 07:18:34;;;;;;;29.42;19.58;;;;;;;13.28;92.27;101365.97;5346879;27;20030;-62
2022/04/13 07:21:06;;;;;;;31.15;19.98;;;;;;;13.37;92.65;101375.16;5352188;27;20022;-62
2022/04/13 07:23:37;;;;;;;26.45;19.08;;;;;;;13.51;92.61;101372.19;5351566;27;20117;-62
2022/04/13 07:26:08;;;;;;;28.08;18.55;;;;;;;13.55;91.56;101376.34;5354202;27;20026;-62
2022/04/13 07:28:40;;;;;;;30.10;19.17;;;;;;;13.61;91.16;101381.19;5347784;27;20034;-62
2022/04/13 07:31:11;;;;;;;28.80;18.95;;;;;;;13.68;90.92;101387.78;5349454;27;20026;-62
2022/04/13 07:33:42;;;;;;;28.85;19.48;;;;;;;13.81;90.32;101387.63;5352395;27;20015;-62
2022/04/13 07:36:13;;;;;;;26.17;18.45;;;;;;;13.95;90.33;101389.19;5348264;27;20037;-62
2022/04/13 07:38:44;;;;;;;27.63;17.90;;;;;;;13.96;89.16;101393.59;5340424;27;20456;-62
2022/04/13 07:41:16;;;;;;;24.08;17.63;;;;;;;13.91;89.60;101383.22;5346239;27;20384;-62
2022/04/13 07:43:49;;;;;;;25.25;18.60;;;;;;;13.92;89.25;101382.25;5343975;27;20399;-62
2022/04/13 07:46:21;;;;;;;24.38;17.33;;;;;;;13.91;89.32;101393.94;5352812;27;20057;-62
2022/04/13 07:48:56;;;;;;;24.95;18.45;;;;;;;13.88;89.56;101394.22;5344226;27;20034;-63
2022/04/13 07:51:27;;;;;;;;;;;;;;;14.03;89.45;101392.06;5350177;27;20027;-62
2022/04/13 07:54:02;;;;;;;27.80;19.50;;;;;;;13.97;89.67;101386.38;5338667;27;20049;-62
2022/04/13 07:56:34;;;;;;;26.63;18.42;;;;;;;14.01;89.61;101394.03;5344550;27;20348;-62
2022/04/13 07:59:05;;;;;;;24.77;18.48;;;;;;;14.08;89.50;101395.25;5349215;27;20528;-62
2022/04/13 08:01:36;;;;;;;24.55;17.65;;;;;;;14.15;89.39;101403.63;5347312;27;20503;-62
2022/04/13 08:04:08;;;;;;;25.10;18.30;;;;;;;14.26;88.97;101402.75;5347573;27;20113;-62
2022/04/13 08:06:39;;;;;;;24.17;17.30;;;;;;;14.42;88.24;101413.91;5346345;27;20026;-62
2022/04/13 08:09:11;;;;;;;27.70;18.10;;;;;;;14.45;87.80;101412.81;5347369;27;20406;-63
2022/04/13 08:11:42;;;;;;;26.83;17.63;;;;;;;14.52;87.91;101414.00;5348617;27;20023;-62
2022/04/13 08:14:13;;;;;;;25.33;17.35;;;;;;;14.58;87.21;101407.28;5349966;27;20056;-63
2022/04/13 08:16:45;;;;;;;24.67;16.73;;;;;;;14.62;87.56;101414.09;5342289;27;20022;-63
2022/04/13 08:19:16;;;;;;;20.80;16.42;;;;;;;14.72;87.58;101414.16;5345895;27;20029;-63
2022/04/13 08:21:47;;;;;;;23.67;15.13;;;;;;;14.71;87.12;101416.00;5346281;27;20023;-62
2022/04/13 08:24:19;;;;;;;21.27;13.80;;;;;;;14.81;86.69;101422.28;5345915;27;20031;-62
2022/04/13 08:26:50;;;;;;;22.25;12.73;;;;;;;14.76;85.17;101424.50;5346971;27;21153;-62
2022/04/13 08:29:21;;;;;;;20.25;12.10;;;;;;;14.80;85.58;101425.94;5343742;27;20036;-63
2022/04/13 08:31:53;;;;;;;21.73;13.27;;;;;;;14.81;85.53;101427.66;5349137;27;20037;-63
2022/04/13 08:34:24;;;;;;;19.95;12.02;;;;;;;14.92;84.23;101436.63;5345837;27;20035;-63
2022/04/13 08:36:56;;;;;;;19.77;13.30;;;;;;;14.98;84.52;101434.28;5352678;27;20057;-63
2022/04/13 08:39:27;;;;;;;19.10;11.93;;;;;;;15.01;85.03;101431.31;5347618;27;20035;-63
2022/04/13 08:42:08;;;;;;;17.65;11.88;;;;;;;15.10;83.31;101430.53;5339849;27;20030;-63
2022/04/13 08:44:40;;;;;;;20.52;12.15;;;;;;;15.07;83.49;101435.31;5345189;27;20091;-63
2022/04/13 08:47:15;;;;;;;17.45;13.18;;;;;;;15.07;83.62;101438.00;5349945;27;20566;-63
2022/04/13 08:49:49;;;;;;;26.60;14.27;;;;;;;15.08;83.52;101448.63;5351399;27;20031;-64
2022/04/13 08:52:26;;;;;;;21.27;13.32;;;;;;;15.20;83.01;101453.94;5349375;27;20027;-62
2022/04/13 08:55:06;;;;;;;17.08;13.30;;;;;;;15.21;83.55;101442.22;5349740;27;20031;-62
2022/04/13 08:57:49;;;;;;;21.95;13.35;;;;;;;15.35;83.48;101449.91;5349713;27;20066;-62
2022/04/13 09:00:23;;;;;;;19.92;13.25;;;;;;;15.53;83.40;101451.97;5346047;27;20026;-63
2022/04/13 09:03:19;;;;;;;20.65;13.48;;;;;;;15.80;82.76;101454.97;5353733;27;20029;-62
2022/04/13 09:05:53;;;;;;;19.88;13.40;;;;;;;15.95;80.60;101455.41;5349524;27;20492;-62
2022/04/13 09:08:35;;;;;;;;;;;;;;;16.16;80.16;101463.41;5348259;27;20113;-62
2022/04/13 09:11:07;;;;;;;23.25;15.57;;;;;;;16.08;78.17;101461.41;5350444;27;19919;-62
2022/04/13 09:13:39;;;;;;;18.98;13.63;;;;;;;16.28;77.80;101461.47;5355282;27;20047;-62
2022/04/13 09:16:12;;;;;;;21.63;15.40;;;;;;;16.45;78.49;101465.28;5351651;27;20124;-62
2022/04/13 09:18:44;;;;;;;16.17;12.98;;;;;;;16.49;77.28;101468.53;5354033;27;20026;-62
2022/04/13 09:21:20;;;;;;;19.20;13.90;;;;;;;16.68;78.78;101479.31;5355065;27;20099;-62
2022/04/13 09:23:51;;;;;;;15.93;12.77;;;;;;;16.84;76.71;101481.50;5354004;27;20022;-62
2022/04/13 09:26:24;;;;;;;18.88;13.07;;;;;;;16.88;75.80;101485.59;5354625;27;20740;-62
2022/04/13 09:28:55;;;;;;;18.02;12.45;;;;;;;16.84;75.10;101476.94;5355595;27;20384;-62
2022/04/13 09:31:27;;;;;;;21.17;13.25;;;;;;;16.95;76.72;101475.09;5353018;27;20035;-62
2022/04/13 09:33:58;;;;;;;19.80;12.65;;;;;;;16.93;75.70;101490.56;5356139;27;20038;-62
2022/04/13 09:36:30;;;;;;;14.88;11.55;;;;;;;17.07;76.08;101494.66;5353938;27;20375;-62
2022/04/13 09:39:02;;;;;;;17.05;12.50;;;;;;;16.97;74.42;101495.53;5352104;27;20035;-62
2022/04/13 09:41:35;;;;;;;17.83;11.88;;;;;;;16.90;75.50;101493.56;5352415;27;20031;-62
2022/04/13 09:44:18;;;;;;;18.52;12.95;;;;;;;16.80;74.40;101491.69;5355790;27;20054;-62
2022/04/13 09:46:49;;;;;;;18.60;12.05;;;;;;;16.82;75.99;101507.75;5351623;27;20480;-62
2022/04/13 09:49:22;;;;;;;17.35;12.13;;;;;;;16.74;75.13;101510.25;5352688;27;20109;-62
2022/04/13 09:51:53;;;;;;;18.70;12.68;;;;;;;16.60;74.62;101506.13;5353763;27;20095;-62
2022/04/13 09:54:25;;;;;;;16.00;11.85;;;;;;;16.60;75.49;101498.03;5355322;27;20030;-62
2022/04/13 09:56:56;;;;;;;20.98;15.02;;;;;;;16.59;75.78;101499.91;5351218;27;20034;-62
2022/04/13 09:59:30;;;;;;;20.00;14.38;;;;;;;16.62;77.03;101510.38;5353336;27;20034;-62
2022/04/13 10:02:01;;;;;;;19.80;14.47;;;;;;;16.57;76.88;101507.28;5349652;27;20015;-62
2022/04/13 10:04:35;;;;;;;21.23;14.90;;;;;;;16.45;76.72;101501.16;5353025;27;20026;-62
2022/04/13 10:07:15;;;;;;;20.50;15.98;;;;;;;16.45;76.69;101511.94;5353624;27;20033;-62
2022/04/13 10:09:46;;;;;;;20.60;16.20;;;;;;;16.32;77.73;101516.75;5353533;27;20030;-62
2022/04/13 10:12:18;;;;;;;21.58;15.63;;;;;;;16.32;77.90;101510.47;5351677;27;20022;-62
2022/04/13 10:14:49;;;;;;;20.70;15.85;;;;;;;16.27;78.86;101505.53;5350736;27;20297;-62
2022/04/13 10:17:21;;;;;;;20.30;15.75;;;;;;;16.25;78.03;101502.13;5352478;27;20034;-62
2022/04/13 10:19:57;;;;;;;23.15;16.25;;;;;;;16.25;78.32;101504.81;5354642;27;20067;-62
2022/04/13 10:22:28;;;;;;;21.65;15.35;;;;;;;16.17;78.11;101507.34;5353714;27;20069;-62
2022/04/13 10:25:25;;;;;;;21.30;14.73;;;;;;;16.19;78.78;101518.81;5353005;27;20061;-62
2022/04/13 10:28:00;;;;;;;22.17;16.10;;;;;;;15.95;79.04;101517.31;5352747;27;20035;-62
2022/04/13 10:30:34;;;;;;;19.42;14.65;;;;;;;15.89;79.58;101517.88;5350381;27;20072;-62
2022/04/13 10:33:13;;;;;;;20.27;13.95;;;;;;;15.88;80.17;101510.78;5351143;27;20019;-62
2022/04/13 10:35:45;;;;;;;20.38;15.15;;;;;;;15.85;80.32;101516.44;5352621;27;20396;-62
2022/04/13 10:38:16;;;;;;;19.42;15.13;;;;;;;15.83;80.28;101521.94;5354294;27;20038;-62
2022/04/13 10:40:50;;;;;;;19.15;14.95;;;;;;;15.80;83.26;101521.38;5348856;27;20034;-62
2022/04/13 10:43:23;;;;;;;19.13;15.00;;;;;;;15.81;83.55;101529.31;5355124;27;20572;-62
2022/04/13 10:45:56;;;;;;;24.73;16.53;;;;;;;15.75;81.64;101526.31;5350282;27;20479;-62
2022/04/13 10:48:33;;;;;;;23.17;17.15;;;;;;;15.79;82.66;101530.44;5352094;27;20031;-62
2022/04/13 10:51:11;;;;;;;24.52;17.35;;;;;;;15.85;83.46;101527.19;5353248;27;20026;-62
2022/04/13 10:54:03;;;;;;;22.67;17.63;;;;;;;16.01;85.02;101527.56;5346290;27;20035;-62
2022/04/13 10:56:37;;;;;;;23.65;19.90;;;;;;;15.95;85.74;101533.47;5351533;27;20083;-62
2022/04/13 10:59:18;;;;;;;24.67;19.55;;;;;;;15.92;87.38;101543.69;5349942;27;20038;-62
2022/04/13 11:01:58;;;;;;;28.73;20.65;;;;;;;15.80;87.29;101551.84;5352965;27;20354;-62
2022/04/13 11:04:32;;;;;;;26.10;21.25;;;;;;;15.71;87.39;101557.97;5352305;27;20036;-62
2022/04/13 11:07:05;;;;;;;27.63;22.90;;;;;;;15.55;86.53;101554.91;5349767;27;20110;-62
2022/04/13 11:09:39;;;;;;;30.60;23.92;;;;;;;15.45;85.14;101550.31;5351403;27;20150;-62
2022/04/13 11:12:11;;;;;;;28.02;23.67;;;;;;;15.54;86.62;101554.06;5346756;27;20472;-62
2022/04/13 11:14:58;;;;;;;27.08;24.08;;;;;;;15.47;85.40;101558.25;5347160;27;20101;-62
2022/04/13 11:17:30;;;;;;;31.40;25.13;;;;;;;15.39;86.32;101556.22;5347547;27;20467;-62
2022/04/13 11:20:17;;;;;;;30.00;24.70;;;;;;;15.45;86.39;101547.63;5333638;27;20354;-62
2022/04/13 11:23:15;;;;;;;30.08;24.15;;;;;;;15.48;86.89;101550.06;5354808;27;20034;-62
2022/04/13 11:25:54;;;;;;;31.77;23.77;;;;;;;15.47;86.72;101550.19;5349264;27;20131;-62
2022/04/13 11:28:34;;;;;;;28.15;24.05;;;;;;;15.51;85.62;101542.72;5348207;27;20030;-62
2022/04/13 11:31:07;;;;;;;31.33;23.52;;;;;;;15.48;85.30;101552.75;5352730;27;20035;-63
2022/04/13 11:33:49;;;;;;;31.42;22.65;;;;;;;15.49;85.21;101561.66;5348953;27;20030;-62
2022/04/13 11:36:24;;;;;;;26.65;21.55;;;;;;;15.43;85.29;101565.72;5350846;27;20098;-62
2022/04/13 11:38:55;;;;;;;29.60;22.20;;;;;;;15.45;85.07;101568.28;5346733;27;20031;-62